sensor_id;sensor_type;location;lat;lon;timestamp;P1;durP1;ratioP1;P2;durP2;ratioP2
64595;SDS011;51003;51.628;6.670;2022-10-16T08:59:34;2.70;;;2.50;;
64595;SDS011;51003;51.628;6.670;2022-10-16T09:02:00;2.60;;;1.90;;
64595;SDS011;51003;51.628;6.670;2022-10-16T09:07:18;5.27;;;1.90;;
64595;SDS011;51003;51.628;6.670;2022-10-16T09:18:41;3.50;;;1.73;;
64595;SDS011;51003;51.628;6.670;2022-10-16T09:23:41;2.27;;;1.70;;
64595;SDS011;51003;51.628;6.670;2022-10-16T09:26:11;6.40;;;2.10;;
64595;SDS011;51003;51.628;6.670;2022-10-16T09:28:37;2.63;;;1.70;;
64595;SDS011;51003;51.628;6.670;2022-10-16T09:31:03;2.90;;;1.50;;
64595;SDS011;51003;51.628;6.670;2022-10-16T09:33:29;1.90;;;1.50;;
64595;SDS011;51003;51.628;6.670;2022-10-16T09:35:58;2.70;;;1.90;;
64595;SDS011;51003;51.628;6.670;2022-10-16T09:38:26;3.57;;;1.70;;
64595;SDS011;51003;51.628;6.670;2022-10-16T09:40:56;2.63;;;2.13;;
64595;SDS011;51003;51.628;6.670;2022-10-16T09:48:23;2.80;;;1.60;;
64595;SDS011;51003;51.628;6.670;2022-10-16T09:50:55;1.70;;;1.60;;
64595;SDS011;51003;51.628;6.670;2022-10-16T09:53:22;2.47;;;1.67;;
64595;SDS011;51003;51.628;6.670;2022-10-16T09:55:51;1.87;;;1.63;;
64595;SDS011;51003;51.628;6.670;2022-10-16T09:58:20;2.77;;;1.40;;
64595;SDS011;51003;51.628;6.670;2022-10-16T10:00:53;5.10;;;1.50;;
64595;SDS011;51003;51.628;6.670;2022-10-16T10:08:52;2.00;;;1.70;;
64595;SDS011;51003;51.628;6.670;2022-10-16T10:11:38;12.60;;;2.47;;
64595;SDS011;51003;51.628;6.670;2022-10-16T10:14:25;1.60;;;1.40;;
64595;SDS011;51003;51.628;6.670;2022-10-16T10:16:52;1.60;;;1.50;;
64595;SDS011;51003;51.628;6.670;2022-10-16T10:19:26;1.50;;;1.40;;
64595;SDS011;51003;51.628;6.670;2022-10-16T10:21:52;2.63;;;1.40;;
64595;SDS011;51003;51.628;6.670;2022-10-16T10:24:18;2.40;;;1.47;;
64595;SDS011;51003;51.628;6.670;2022-10-16T10:26:55;4.23;;;1.40;;
64595;SDS011;51003;51.628;6.670;2022-10-16T10:29:48;4.50;;;1.67;;
64595;SDS011;51003;51.628;6.670;2022-10-16T10:32:28;4.40;;;1.70;;
64595;SDS011;51003;51.628;6.670;2022-10-16T10:45:43;2.13;;;1.70;;
64595;SDS011;51003;51.628;6.670;2022-10-16T10:53:24;2.43;;;1.57;;
64595;SDS011;51003;51.628;6.670;2022-10-16T11:07:11;2.60;;;1.50;;
64595;SDS011;51003;51.628;6.670;2022-10-16T11:09:47;2.33;;;1.57;;
64595;SDS011;51003;51.628;6.670;2022-10-16T11:12:17;3.00;;;1.90;;
64595;SDS011;51003;51.628;6.670;2022-10-16T11:14:46;1.70;;;1.60;;
64595;SDS011;51003;51.628;6.670;2022-10-16T11:17:28;2.30;;;1.50;;
64595;SDS011;51003;51.628;6.670;2022-10-16T11:20:11;5.33;;;2.03;;
64595;SDS011;51003;51.628;6.670;2022-10-16T11:22:47;4.87;;;1.70;;
64595;SDS011;51003;51.628;6.670;2022-10-16T11:25:18;2.97;;;1.40;;
64595;SDS011;51003;51.628;6.670;2022-10-16T11:27:49;2.77;;;1.73;;
64595;SDS011;51003;51.628;6.670;2022-10-16T11:30:18;1.97;;;1.40;;
64595;SDS011;51003;51.628;6.670;2022-10-16T11:38:21;4.80;;;1.93;;
64595;SDS011;51003;51.628;6.670;2022-10-16T11:40:56;2.63;;;1.47;;
64595;SDS011;51003;51.628;6.670;2022-10-16T11:43:48;2.87;;;1.60;;
64595;SDS011;51003;51.628;6.670;2022-10-16T11:46:15;1.90;;;1.10;;
64595;SDS011;51003;51.628;6.670;2022-10-16T11:56:46;3.70;;;1.50;;
64595;SDS011;51003;51.628;6.670;2022-10-16T12:08:32;2.30;;;1.50;;
64595;SDS011;51003;51.628;6.670;2022-10-16T12:10:36;3.43;;;1.40;;
64595;SDS011;51003;51.628;6.670;2022-10-16T12:13:25;2.70;;;1.47;;
64595;SDS011;51003;51.628;6.670;2022-10-16T12:16:07;1.43;;;1.30;;
64595;SDS011;51003;51.628;6.670;2022-10-16T12:18:44;2.70;;;1.50;;
64595;SDS011;51003;51.628;6.670;2022-10-16T12:21:11;2.20;;;1.40;;
64595;SDS011;51003;51.628;6.670;2022-10-16T12:23:50;2.90;;;1.53;;
64595;SDS011;51003;51.628;6.670;2022-10-16T12:26:25;3.80;;;1.50;;
64595;SDS011;51003;51.628;6.670;2022-10-16T12:28:52;1.63;;;1.30;;
64595;SDS011;51003;51.628;6.670;2022-10-16T12:31:17;2.93;;;1.60;;
64595;SDS011;51003;51.628;6.670;2022-10-16T12:33:53;1.83;;;1.47;;
64595;SDS011;51003;51.628;6.670;2022-10-16T12:36:29;2.20;;;1.50;;
64595;SDS011;51003;51.628;6.670;2022-10-16T12:38:56;3.43;;;1.77;;
64595;SDS011;51003;51.628;6.670;2022-10-16T12:41:32;1.30;;;1.20;;
64595;SDS011;51003;51.628;6.670;2022-10-16T12:43:59;2.67;;;1.40;;
64595;SDS011;51003;51.628;6.670;2022-10-16T12:48:53;2.83;;;1.40;;
64595;SDS011;51003;51.628;6.670;2022-10-16T12:51:38;3.10;;;1.47;;
64595;SDS011;51003;51.628;6.670;2022-10-16T13:16:42;1.63;;;1.30;;
64595;SDS011;51003;51.628;6.670;2022-10-16T13:19:29;2.40;;;1.30;;
64595;SDS011;51003;51.628;6.670;2022-10-16T13:30:19;2.20;;;1.50;;
64595;SDS011;51003;51.628;6.670;2022-10-16T13:32:47;1.63;;;1.50;;
64595;SDS011;51003;51.628;6.670;2022-10-16T13:37:50;1.70;;;1.30;;
64595;SDS011;51003;51.628;6.670;2022-10-16T13:40:20;1.90;;;1.40;;
64595;SDS011;51003;51.628;6.670;2022-10-16T13:42:47;1.57;;;1.10;;
64595;SDS011;51003;51.628;6.670;2022-10-16T13:45:17;1.97;;;1.40;;
64595;SDS011;51003;51.628;6.670;2022-10-16T13:47:45;1.97;;;1.47;;
64595;SDS011;51003;51.628;6.670;2022-10-16T13:50:12;1.50;;;1.40;;
64595;SDS011;51003;51.628;6.670;2022-10-16T13:52:39;2.03;;;1.30;;
64595;SDS011;51003;51.628;6.670;2022-10-16T13:55:15;1.47;;;1.13;;
64595;SDS011;51003;51.628;6.670;2022-10-16T13:57:42;6.03;;;1.50;;
64595;SDS011;51003;51.628;6.670;2022-10-16T14:00:22;4.17;;;1.20;;
64595;SDS011;51003;51.628;6.670;2022-10-16T14:02:53;1.33;;;1.20;;
64595;SDS011;51003;51.628;6.670;2022-10-16T14:05:22;1.30;;;1.20;;
64595;SDS011;51003;51.628;6.670;2022-10-16T14:07:49;1.43;;;1.10;;
64595;SDS011;51003;51.628;6.670;2022-10-16T14:10:20;2.30;;;1.30;;
64595;SDS011;51003;51.628;6.670;2022-10-16T14:15:23;5.80;;;1.40;;
64595;SDS011;51003;51.628;6.670;2022-10-16T14:17:50;3.03;;;1.30;;
64595;SDS011;51003;51.628;6.670;2022-10-16T14:20:16;1.60;;;1.50;;
64595;SDS011;51003;51.628;6.670;2022-10-16T14:22:42;3.13;;;1.33;;
64595;SDS011;51003;51.628;6.670;2022-10-16T14:27:45;6.03;;;1.43;;
64595;SDS011;51003;51.628;6.670;2022-10-16T14:30:22;1.97;;;1.47;;
64595;SDS011;51003;51.628;6.670;2022-10-16T14:33:05;1.40;;;1.30;;
64595;SDS011;51003;51.628;6.670;2022-10-16T14:35:43;1.50;;;1.40;;
64595;SDS011;51003;51.628;6.670;2022-10-16T14:38:16;1.57;;;1.37;;
64595;SDS011;51003;51.628;6.670;2022-10-16T14:40:46;3.63;;;1.40;;
64595;SDS011;51003;51.628;6.670;2022-10-16T14:43:20;3.13;;;1.40;;
64595;SDS011;51003;51.628;6.670;2022-10-16T14:45:54;2.20;;;1.20;;
64595;SDS011;51003;51.628;6.670;2022-10-16T14:48:21;2.33;;;1.10;;
64595;SDS011;51003;51.628;6.670;2022-10-16T14:50:46;4.10;;;1.60;;
64595;SDS011;51003;51.628;6.670;2022-10-16T14:53:12;1.67;;;1.50;;
64595;SDS011;51003;51.628;6.670;2022-10-16T14:55:37;2.07;;;1.30;;
64595;SDS011;51003;51.628;6.670;2022-10-16T14:58:04;2.73;;;1.37;;
64595;SDS011;51003;51.628;6.670;2022-10-16T15:00:29;2.40;;;1.40;;
64595;SDS011;51003;51.628;6.670;2022-10-16T15:02:55;2.27;;;1.30;;
64595;SDS011;51003;51.628;6.670;2022-10-16T15:05:24;1.90;;;1.30;;
64595;SDS011;51003;51.628;6.670;2022-10-16T15:07:51;3.83;;;1.50;;
64595;SDS011;51003;51.628;6.670;2022-10-16T15:10:18;1.40;;;1.30;;
64595;SDS011;51003;51.628;6.670;2022-10-16T15:12:45;1.80;;;1.70;;
64595;SDS011;51003;51.628;6.670;2022-10-16T15:17:48;2.83;;;1.40;;
64595;SDS011;51003;51.628;6.670;2022-10-16T15:20:43;9.30;;;1.60;;
64595;SDS011;51003;51.628;6.670;2022-10-16T15:23:19;3.03;;;1.60;;
64595;SDS011;51003;51.628;6.670;2022-10-16T15:28:12;2.83;;;1.60;;
64595;SDS011;51003;51.628;6.670;2022-10-16T15:30:39;1.97;;;1.40;;
64595;SDS011;51003;51.628;6.670;2022-10-16T15:33:05;3.97;;;1.40;;
64595;SDS011;51003;51.628;6.670;2022-10-16T15:35:36;4.17;;;1.47;;
64595;SDS011;51003;51.628;6.670;2022-10-16T15:38:02;2.83;;;1.30;;
64595;SDS011;51003;51.628;6.670;2022-10-16T15:40:27;2.20;;;1.47;;
64595;SDS011;51003;51.628;6.670;2022-10-16T15:42:52;3.13;;;1.60;;
64595;SDS011;51003;51.628;6.670;2022-10-16T15:45:18;2.40;;;1.33;;
64595;SDS011;51003;51.628;6.670;2022-10-16T15:47:44;2.90;;;1.67;;
64595;SDS011;51003;51.628;6.670;2022-10-16T15:50:10;2.90;;;1.67;;
64595;SDS011;51003;51.628;6.670;2022-10-16T15:52:40;2.10;;;1.70;;
64595;SDS011;51003;51.628;6.670;2022-10-16T15:55:10;2.80;;;1.73;;
64595;SDS011;51003;51.628;6.670;2022-10-16T15:57:37;2.27;;;1.50;;
64595;SDS011;51003;51.628;6.670;2022-10-16T16:00:07;1.77;;;1.67;;
64595;SDS011;51003;51.628;6.670;2022-10-16T16:02:34;3.37;;;1.77;;
64595;SDS011;51003;51.628;6.670;2022-10-16T16:04:59;2.50;;;2.00;;
64595;SDS011;51003;51.628;6.670;2022-10-16T16:07:25;3.30;;;2.00;;
64595;SDS011;51003;51.628;6.670;2022-10-16T16:09:52;1.93;;;1.80;;
64595;SDS011;51003;51.628;6.670;2022-10-16T16:12:17;6.60;;;2.30;;
64595;SDS011;51003;51.628;6.670;2022-10-16T16:14:43;4.67;;;2.23;;
64595;SDS011;51003;51.628;6.670;2022-10-16T16:17:11;3.77;;;2.03;;
64595;SDS011;51003;51.628;6.670;2022-10-16T16:19:36;3.80;;;1.80;;
64595;SDS011;51003;51.628;6.670;2022-10-16T16:22:02;3.50;;;2.10;;
64595;SDS011;51003;51.628;6.670;2022-10-16T16:24:27;2.13;;;1.90;;
64595;SDS011;51003;51.628;6.670;2022-10-16T16:26:52;3.50;;;2.00;;
64595;SDS011;51003;51.628;6.670;2022-10-16T16:29:18;4.60;;;2.20;;
64595;SDS011;51003;51.628;6.670;2022-10-16T16:31:43;3.73;;;2.27;;
64595;SDS011;51003;51.628;6.670;2022-10-16T16:34:09;5.53;;;3.53;;
64595;SDS011;51003;51.628;6.670;2022-10-16T16:36:34;3.50;;;2.40;;
64595;SDS011;51003;51.628;6.670;2022-10-16T16:39:00;4.33;;;2.30;;
64595;SDS011;51003;51.628;6.670;2022-10-16T16:41:26;4.03;;;2.57;;
64595;SDS011;51003;51.628;6.670;2022-10-16T16:43:53;8.97;;;2.30;;
64595;SDS011;51003;51.628;6.670;2022-10-16T16:46:19;5.73;;;2.40;;
64595;SDS011;51003;51.628;6.670;2022-10-16T16:48:45;3.40;;;2.43;;
64595;SDS011;51003;51.628;6.670;2022-10-16T16:51:12;3.87;;;2.77;;
64595;SDS011;51003;51.628;6.670;2022-10-16T16:53:41;4.70;;;2.47;;
64595;SDS011;51003;51.628;6.670;2022-10-16T16:56:07;8.00;;;2.70;;
64595;SDS011;51003;51.628;6.670;2022-10-16T16:58:35;4.17;;;2.40;;
64595;SDS011;51003;51.628;6.670;2022-10-16T17:01:03;6.77;;;2.40;;
64595;SDS011;51003;51.628;6.670;2022-10-16T17:03:31;6.03;;;2.13;;
64595;SDS011;51003;51.628;6.670;2022-10-16T17:06:02;2.50;;;2.30;;
64595;SDS011;51003;51.628;6.670;2022-10-16T17:08:31;4.23;;;2.43;;
64595;SDS011;51003;51.628;6.670;2022-10-16T17:10:57;2.17;;;1.90;;
64595;SDS011;51003;51.628;6.670;2022-10-16T17:13:24;5.87;;;2.53;;
64595;SDS011;51003;51.628;6.670;2022-10-16T17:15:50;3.00;;;2.70;;
64595;SDS011;51003;51.628;6.670;2022-10-16T17:18:16;3.10;;;2.33;;
64595;SDS011;51003;51.628;6.670;2022-10-16T17:20:42;3.27;;;2.57;;
64595;SDS011;51003;51.628;6.670;2022-10-16T17:23:08;2.87;;;2.60;;
64595;SDS011;51003;51.628;6.670;2022-10-16T17:25:38;4.53;;;2.77;;
64595;SDS011;51003;51.628;6.670;2022-10-16T17:28:03;7.30;;;2.90;;
64595;SDS011;51003;51.628;6.670;2022-10-16T17:30:29;6.23;;;2.50;;
64595;SDS011;51003;51.628;6.670;2022-10-16T17:32:54;4.83;;;3.57;;
64595;SDS011;51003;51.628;6.670;2022-10-16T17:35:20;4.80;;;3.40;;
64595;SDS011;51003;51.628;6.670;2022-10-16T17:37:45;5.23;;;3.77;;
64595;SDS011;51003;51.628;6.670;2022-10-16T17:40:11;5.20;;;3.90;;
64595;SDS011;51003;51.628;6.670;2022-10-16T17:42:36;5.47;;;4.17;;
64595;SDS011;51003;51.628;6.670;2022-10-16T17:45:02;5.20;;;3.90;;
64595;SDS011;51003;51.628;6.670;2022-10-16T17:47:28;9.27;;;4.20;;
64595;SDS011;51003;51.628;6.670;2022-10-16T17:49:53;7.30;;;3.90;;
64595;SDS011;51003;51.628;6.670;2022-10-16T17:52:19;6.80;;;3.63;;
64595;SDS011;51003;51.628;6.670;2022-10-16T17:54:44;4.03;;;3.50;;
64595;SDS011;51003;51.628;6.670;2022-10-16T17:57:10;6.83;;;3.57;;
64595;SDS011;51003;51.628;6.670;2022-10-16T17:59:36;4.23;;;3.33;;
64595;SDS011;51003;51.628;6.670;2022-10-16T18:02:01;3.83;;;3.57;;
64595;SDS011;51003;51.628;6.670;2022-10-16T18:04:27;7.27;;;4.03;;
64595;SDS011;51003;51.628;6.670;2022-10-16T18:06:53;7.50;;;4.00;;
64595;SDS011;51003;51.628;6.670;2022-10-16T18:09:20;6.30;;;3.97;;
64595;SDS011;51003;51.628;6.670;2022-10-16T18:11:46;8.17;;;4.13;;
64595;SDS011;51003;51.628;6.670;2022-10-16T18:14:12;4.93;;;4.20;;
64595;SDS011;51003;51.628;6.670;2022-10-16T18:16:38;3.80;;;3.40;;
64595;SDS011;51003;51.628;6.670;2022-10-16T18:19:03;4.90;;;3.73;;
64595;SDS011;51003;51.628;6.670;2022-10-16T18:21:29;5.70;;;3.50;;
64595;SDS011;51003;51.628;6.670;2022-10-16T18:23:56;5.00;;;3.30;;
64595;SDS011;51003;51.628;6.670;2022-10-16T18:26:22;5.20;;;3.03;;
64595;SDS011;51003;51.628;6.670;2022-10-16T18:28:50;9.57;;;4.23;;
64595;SDS011;51003;51.628;6.670;2022-10-16T18:31:16;6.23;;;4.33;;
64595;SDS011;51003;51.628;6.670;2022-10-16T18:33:42;6.37;;;4.27;;
64595;SDS011;51003;51.628;6.670;2022-10-16T18:36:13;3.60;;;3.30;;
64595;SDS011;51003;51.628;6.670;2022-10-16T18:38:39;4.20;;;3.53;;
64595;SDS011;51003;51.628;6.670;2022-10-16T18:41:05;6.80;;;3.40;;
64595;SDS011;51003;51.628;6.670;2022-10-16T18:43:31;3.97;;;3.57;;
64595;SDS011;51003;51.628;6.670;2022-10-16T18:45:58;4.30;;;3.43;;
64595;SDS011;51003;51.628;6.670;2022-10-16T18:48:31;5.77;;;3.70;;
64595;SDS011;51003;51.628;6.670;2022-10-16T18:51:10;4.37;;;3.97;;
64595;SDS011;51003;51.628;6.670;2022-10-16T18:53:37;7.50;;;3.57;;
64595;SDS011;51003;51.628;6.670;2022-10-16T18:56:03;4.27;;;3.33;;
64595;SDS011;51003;51.628;6.670;2022-10-16T18:58:28;5.87;;;4.70;;
64595;SDS011;51003;51.628;6.670;2022-10-16T19:00:54;7.77;;;5.50;;
64595;SDS011;51003;51.628;6.670;2022-10-16T19:03:19;14.40;;;9.43;;
64595;SDS011;51003;51.628;6.670;2022-10-16T19:05:45;11.77;;;7.60;;
64595;SDS011;51003;51.628;6.670;2022-10-16T19:08:11;9.23;;;6.77;;
64595;SDS011;51003;51.628;6.670;2022-10-16T19:10:37;20.17;;;14.03;;
64595;SDS011;51003;51.628;6.670;2022-10-16T19:13:03;10.00;;;7.30;;
64595;SDS011;51003;51.628;6.670;2022-10-16T19:15:29;11.57;;;7.83;;
64595;SDS011;51003;51.628;6.670;2022-10-16T19:17:54;11.20;;;8.33;;
64595;SDS011;51003;51.628;6.670;2022-10-16T19:20:20;11.20;;;7.57;;
64595;SDS011;51003;51.628;6.670;2022-10-16T19:22:46;9.80;;;7.23;;
64595;SDS011;51003;51.628;6.670;2022-10-16T19:25:23;9.53;;;4.97;;
64595;SDS011;51003;51.628;6.670;2022-10-16T19:27:49;10.70;;;4.30;;
64595;SDS011;51003;51.628;6.670;2022-10-16T19:30:15;7.30;;;4.67;;
64595;SDS011;51003;51.628;6.670;2022-10-16T19:32:41;16.97;;;9.33;;
64595;SDS011;51003;51.628;6.670;2022-10-16T19:35:07;9.77;;;7.70;;
64595;SDS011;51003;51.628;6.670;2022-10-16T19:37:36;6.00;;;4.27;;
64595;SDS011;51003;51.628;6.670;2022-10-16T19:40:01;9.70;;;5.33;;
64595;SDS011;51003;51.628;6.670;2022-10-16T19:42:27;6.97;;;4.80;;
64595;SDS011;51003;51.628;6.670;2022-10-16T19:44:53;9.07;;;4.37;;
64595;SDS011;51003;51.628;6.670;2022-10-16T19:47:18;4.60;;;4.20;;
64595;SDS011;51003;51.628;6.670;2022-10-16T19:49:43;7.03;;;5.57;;
64595;SDS011;51003;51.628;6.670;2022-10-16T19:52:09;11.83;;;6.73;;
64595;SDS011;51003;51.628;6.670;2022-10-16T19:54:34;5.40;;;4.90;;
64595;SDS011;51003;51.628;6.670;2022-10-16T19:57:00;6.40;;;5.20;;
64595;SDS011;51003;51.628;6.670;2022-10-16T19:59:26;10.50;;;5.00;;
64595;SDS011;51003;51.628;6.670;2022-10-16T20:01:51;9.43;;;5.80;;
64595;SDS011;51003;51.628;6.670;2022-10-16T20:04:17;12.40;;;7.77;;
64595;SDS011;51003;51.628;6.670;2022-10-16T20:06:42;10.30;;;7.17;;
64595;SDS011;51003;51.628;6.670;2022-10-16T20:09:08;11.97;;;7.30;;
64595;SDS011;51003;51.628;6.670;2022-10-16T20:11:35;10.73;;;6.80;;
64595;SDS011;51003;51.628;6.670;2022-10-16T20:14:01;12.73;;;6.70;;
64595;SDS011;51003;51.628;6.670;2022-10-16T20:16:28;11.37;;;6.70;;
64595;SDS011;51003;51.628;6.670;2022-10-16T20:18:54;8.80;;;5.47;;
64595;SDS011;51003;51.628;6.670;2022-10-16T20:21:21;6.67;;;5.67;;
64595;SDS011;51003;51.628;6.670;2022-10-16T20:23:47;12.50;;;5.70;;
64595;SDS011;51003;51.628;6.670;2022-10-16T20:26:15;9.20;;;5.60;;
64595;SDS011;51003;51.628;6.670;2022-10-16T20:28:42;10.37;;;5.00;;
64595;SDS011;51003;51.628;6.670;2022-10-16T20:31:09;7.30;;;5.13;;
64595;SDS011;51003;51.628;6.670;2022-10-16T20:33:37;9.07;;;5.40;;
64595;SDS011;51003;51.628;6.670;2022-10-16T20:36:03;5.80;;;4.63;;
64595;SDS011;51003;51.628;6.670;2022-10-16T20:38:29;7.20;;;4.63;;
64595;SDS011;51003;51.628;6.670;2022-10-16T20:40:55;5.60;;;4.80;;
64595;SDS011;51003;51.628;6.670;2022-10-16T20:43:20;8.23;;;4.70;;
64595;SDS011;51003;51.628;6.670;2022-10-16T20:45:45;6.60;;;4.50;;
64595;SDS011;51003;51.628;6.670;2022-10-16T20:48:11;5.90;;;5.00;;
64595;SDS011;51003;51.628;6.670;2022-10-16T20:50:38;8.70;;;5.20;;
64595;SDS011;51003;51.628;6.670;2022-10-16T20:53:04;7.17;;;5.00;;
64595;SDS011;51003;51.628;6.670;2022-10-16T20:55:29;5.27;;;4.70;;
64595;SDS011;51003;51.628;6.670;2022-10-16T20:57:55;5.17;;;4.33;;
64595;SDS011;51003;51.628;6.670;2022-10-16T21:00:20;5.83;;;4.63;;
64595;SDS011;51003;51.628;6.670;2022-10-16T21:02:50;6.53;;;4.70;;
64595;SDS011;51003;51.628;6.670;2022-10-16T21:05:16;4.87;;;4.40;;
64595;SDS011;51003;51.628;6.670;2022-10-16T21:07:42;5.17;;;4.30;;
64595;SDS011;51003;51.628;6.670;2022-10-16T21:10:07;5.67;;;4.50;;
64595;SDS011;51003;51.628;6.670;2022-10-16T21:12:33;7.27;;;4.60;;
64595;SDS011;51003;51.628;6.670;2022-10-16T21:14:58;6.60;;;4.43;;
64595;SDS011;51003;51.628;6.670;2022-10-16T21:17:24;8.60;;;4.40;;
64595;SDS011;51003;51.628;6.670;2022-10-16T21:19:49;5.03;;;4.53;;
64595;SDS011;51003;51.628;6.670;2022-10-16T21:22:14;7.23;;;4.20;;
64595;SDS011;51003;51.628;6.670;2022-10-16T21:24:40;5.30;;;4.13;;
64595;SDS011;51003;51.628;6.670;2022-10-16T21:27:05;4.90;;;4.40;;
64595;SDS011;51003;51.628;6.670;2022-10-16T21:29:31;5.00;;;3.83;;
64595;SDS011;51003;51.628;6.670;2022-10-16T21:31:56;5.77;;;3.80;;
64595;SDS011;51003;51.628;6.670;2022-10-16T21:34:22;4.73;;;3.87;;
64595;SDS011;51003;51.628;6.670;2022-10-16T21:36:47;5.03;;;4.37;;
64595;SDS011;51003;51.628;6.670;2022-10-16T21:39:13;7.10;;;5.07;;
64595;SDS011;51003;51.628;6.670;2022-10-16T21:41:41;11.70;;;4.50;;
64595;SDS011;51003;51.628;6.670;2022-10-16T21:44:07;5.20;;;4.53;;
64595;SDS011;51003;51.628;6.670;2022-10-16T21:46:34;13.23;;;4.30;;
64595;SDS011;51003;51.628;6.670;2022-10-16T21:49:01;5.40;;;4.70;;
64595;SDS011;51003;51.628;6.670;2022-10-16T21:51:30;5.40;;;4.30;;
64595;SDS011;51003;51.628;6.670;2022-10-16T21:53:57;5.83;;;4.43;;
64595;SDS011;51003;51.628;6.670;2022-10-16T21:56:23;4.47;;;4.07;;
64595;SDS011;51003;51.628;6.670;2022-10-16T21:58:48;4.63;;;4.00;;
64595;SDS011;51003;51.628;6.670;2022-10-16T22:01:15;5.53;;;4.10;;
64595;SDS011;51003;51.628;6.670;2022-10-16T22:03:41;6.63;;;4.20;;
64595;SDS011;51003;51.628;6.670;2022-10-16T22:06:08;5.00;;;3.93;;
64595;SDS011;51003;51.628;6.670;2022-10-16T22:08:35;4.73;;;4.30;;
64595;SDS011;51003;51.628;6.670;2022-10-16T22:13:34;6.80;;;4.80;;
64595;SDS011;51003;51.628;6.670;2022-10-16T22:16:00;4.73;;;4.33;;
64595;SDS011;51003;51.628;6.670;2022-10-16T22:18:25;5.77;;;4.57;;
64595;SDS011;51003;51.628;6.670;2022-10-16T22:20:51;5.37;;;4.70;;
64595;SDS011;51003;51.628;6.670;2022-10-16T22:23:17;6.00;;;4.67;;
64595;SDS011;51003;51.628;6.670;2022-10-16T22:25:42;6.93;;;4.67;;
64595;SDS011;51003;51.628;6.670;2022-10-16T22:28:08;9.20;;;4.90;;
64595;SDS011;51003;51.628;6.670;2022-10-16T22:30:34;4.40;;;4.00;;
64595;SDS011;51003;51.628;6.670;2022-10-16T22:33:00;4.60;;;4.20;;
64595;SDS011;51003;51.628;6.670;2022-10-16T22:35:25;8.33;;;4.33;;
64595;SDS011;51003;51.628;6.670;2022-10-16T22:37:51;4.60;;;4.20;;
64595;SDS011;51003;51.628;6.670;2022-10-16T22:40:16;4.77;;;4.13;;
64595;SDS011;51003;51.628;6.670;2022-10-16T22:42:41;4.63;;;4.10;;
64595;SDS011;51003;51.628;6.670;2022-10-16T22:45:07;7.60;;;4.30;;
64595;SDS011;51003;51.628;6.670;2022-10-16T22:47:32;10.73;;;4.37;;
64595;SDS011;51003;51.628;6.670;2022-10-16T22:49:58;6.17;;;4.13;;
64595;SDS011;51003;51.628;6.670;2022-10-16T22:52:23;6.63;;;4.00;;
64595;SDS011;51003;51.628;6.670;2022-10-16T22:54:48;5.87;;;4.00;;
64595;SDS011;51003;51.628;6.670;2022-10-16T22:57:14;4.90;;;4.40;;
64595;SDS011;51003;51.628;6.670;2022-10-16T22:59:39;4.20;;;3.80;;
64595;SDS011;51003;51.628;6.670;2022-10-16T23:02:05;5.13;;;4.67;;
64595;SDS011;51003;51.628;6.670;2022-10-16T23:04:30;4.57;;;4.07;;
64595;SDS011;51003;51.628;6.670;2022-10-16T23:06:56;5.97;;;4.33;;
64595;SDS011;51003;51.628;6.670;2022-10-16T23:09:23;8.80;;;4.60;;
64595;SDS011;51003;51.628;6.670;2022-10-16T23:11:48;4.50;;;4.10;;
64595;SDS011;51003;51.628;6.670;2022-10-16T23:14:17;5.13;;;4.00;;
64595;SDS011;51003;51.628;6.670;2022-10-16T23:16:44;4.50;;;4.10;;
64595;SDS011;51003;51.628;6.670;2022-10-16T23:19:09;5.07;;;4.03;;
64595;SDS011;51003;51.628;6.670;2022-10-16T23:21:34;4.90;;;4.40;;
64595;SDS011;51003;51.628;6.670;2022-10-16T23:24:00;7.30;;;4.13;;
64595;SDS011;51003;51.628;6.670;2022-10-16T23:26:25;6.80;;;3.97;;
64595;SDS011;51003;51.628;6.670;2022-10-16T23:28:51;5.30;;;4.60;;
64595;SDS011;51003;51.628;6.670;2022-10-16T23:31:16;4.83;;;4.37;;
64595;SDS011;51003;51.628;6.670;2022-10-16T23:33:42;4.80;;;4.27;;
64595;SDS011;51003;51.628;6.670;2022-10-16T23:36:09;5.70;;;5.20;;
64595;SDS011;51003;51.628;6.670;2022-10-16T23:38:37;6.90;;;4.80;;
64595;SDS011;51003;51.628;6.670;2022-10-16T23:41:02;4.90;;;4.50;;
64595;SDS011;51003;51.628;6.670;2022-10-16T23:43:28;5.77;;;5.17;;
64595;SDS011;51003;51.628;6.670;2022-10-16T23:45:54;5.13;;;4.63;;
64595;SDS011;51003;51.628;6.670;2022-10-16T23:48:19;7.03;;;5.47;;
64595;SDS011;51003;51.628;6.670;2022-10-16T23:50:45;5.63;;;5.03;;
64595;SDS011;51003;51.628;6.670;2022-10-16T23:53:10;5.73;;;5.00;;
64595;SDS011;51003;51.628;6.670;2022-10-16T23:55:35;5.63;;;4.70;;
64595;SDS011;51003;51.628;6.670;2022-10-16T23:58:01;5.40;;;4.90;;
